sensor_id;sensor_type;location;lat;lon;timestamp;pressure;altitude;pressure_sealevel;temperature;humidity
12775;BME280;6451;42.630;23.382;2022-10-10T00:00:50;95164.81;;;11.58;100.00
12775;BME280;6451;42.630;23.382;2022-10-10T00:03:18;95165.41;;;11.64;100.00
12775;BME280;6451;42.630;23.382;2022-10-10T00:05:47;95164.88;;;11.70;100.00
12775;BME280;6451;42.630;23.382;2022-10-10T00:08:14;95152.34;;;11.57;100.00
12775;BME280;6451;42.630;23.382;2022-10-10T00:10:41;95126.34;;;11.27;100.00
12775;BME280;6451;42.630;23.382;2022-10-10T00:13:08;95173.16;;;11.53;100.00
12775;BME280;6451;42.630;23.382;2022-10-10T00:15:36;95180.25;;;11.46;100.00
12775;BME280;6451;42.630;23.382;2022-10-10T00:18:03;95173.34;;;11.48;100.00
12775;BME280;6451;42.630;23.382;2022-10-10T00:20:30;95063.25;;;10.79;100.00
12775;BME280;6451;42.630;23.382;2022-10-10T00:22:57;95146.13;;;11.36;100.00
12775;BME280;6451;42.630;23.382;2022-10-10T00:25:24;95164.41;;;11.48;100.00
12775;BME280;6451;42.630;23.382;2022-10-10T00:27:51;95168.78;;;11.40;100.00
12775;BME280;6451;42.630;23.382;2022-10-10T00:30:19;95171.03;;;11.38;100.00
12775;BME280;6451;42.630;23.382;2022-10-10T00:32:48;95167.19;;;11.39;100.00
12775;BME280;6451;42.630;23.382;2022-10-10T00:35:15;95172.63;;;11.39;100.00
12775;BME280;6451;42.630;23.382;2022-10-10T00:37:42;95124.56;;;11.10;100.00
12775;BME280;6451;42.630;23.382;2022-10-10T00:40:11;95161.63;;;11.35;100.00
12775;BME280;6451;42.630;23.382;2022-10-10T00:42:38;95100.22;;;10.93;100.00
12775;BME280;6451;42.630;23.382;2022-10-10T00:45:24;95165.78;;;11.33;100.00
12775;BME280;6451;42.630;23.382;2022-10-10T00:47:57;95006.59;;;10.19;100.00
12775;BME280;6451;42.630;23.382;2022-10-10T00:50:25;95171.44;;;11.28;100.00
12775;BME280;6451;42.630;23.382;2022-10-10T00:52:53;95151.13;;;11.25;100.00
12775;BME280;6451;42.630;23.382;2022-10-10T00:55:20;95148.28;;;11.22;100.00
12775;BME280;6451;42.630;23.382;2022-10-10T00:57:48;95165.66;;;11.29;100.00
12775;BME280;6451;42.630;23.382;2022-10-10T01:00:16;95171.22;;;11.33;100.00
12775;BME280;6451;42.630;23.382;2022-10-10T01:02:44;95171.50;;;11.40;100.00
12775;BME280;6451;42.630;23.382;2022-10-10T01:05:12;95176.94;;;11.40;100.00
12775;BME280;6451;42.630;23.382;2022-10-10T01:07:40;95176.81;;;11.36;100.00
12775;BME280;6451;42.630;23.382;2022-10-10T01:10:11;95171.72;;;11.35;100.00
12775;BME280;6451;42.630;23.382;2022-10-10T01:12:52;95178.72;;;11.36;100.00
12775;BME280;6451;42.630;23.382;2022-10-10T01:15:30;95181.75;;;11.34;100.00
12775;BME280;6451;42.630;23.382;2022-10-10T01:18:09;95185.53;;;11.21;100.00
12775;BME280;6451;42.630;23.382;2022-10-10T01:20:50;95188.09;;;11.18;100.00
12775;BME280;6451;42.630;23.382;2022-10-10T01:29:24;95186.28;;;11.30;100.00
12775;BME280;6451;42.630;23.382;2022-10-10T01:32:02;95171.44;;;11.28;100.00
12775;BME280;6451;42.630;23.382;2022-10-10T01:34:34;95131.84;;;11.18;100.00
12775;BME280;6451;42.630;23.382;2022-10-10T01:37:07;95180.44;;;11.40;100.00
12775;BME280;6451;42.630;23.382;2022-10-10T01:39:40;95177.72;;;11.40;100.00
12775;BME280;6451;42.630;23.382;2022-10-10T01:42:13;95111.78;;;11.10;100.00
12775;BME280;6451;42.630;23.382;2022-10-10T01:44:45;95192.47;;;11.60;100.00
12775;BME280;6451;42.630;23.382;2022-10-10T01:47:12;95147.03;;;11.40;100.00
12775;BME280;6451;42.630;23.382;2022-10-10T01:49:43;95157.50;;;11.29;100.00
12775;BME280;6451;42.630;23.382;2022-10-10T01:52:21;95179.78;;;11.44;100.00
12775;BME280;6451;42.630;23.382;2022-10-10T01:54:58;95150.63;;;11.32;100.00
12775;BME280;6451;42.630;23.382;2022-10-10T01:57:31;95167.38;;;11.34;100.00
12775;BME280;6451;42.630;23.382;2022-10-10T02:00:08;95181.81;;;11.26;100.00
12775;BME280;6451;42.630;23.382;2022-10-10T02:02:43;95161.16;;;11.04;100.00
12775;BME280;6451;42.630;23.382;2022-10-10T02:05:19;95157.66;;;11.03;100.00
12775;BME280;6451;42.630;23.382;2022-10-10T02:07:54;95120.69;;;10.61;100.00
12775;BME280;6451;42.630;23.382;2022-10-10T02:10:24;95155.44;;;10.76;100.00
12775;BME280;6451;42.630;23.382;2022-10-10T02:12:53;95167.59;;;10.70;100.00
12775;BME280;6451;42.630;23.382;2022-10-10T02:15:25;95186.88;;;10.77;100.00
12775;BME280;6451;42.630;23.382;2022-10-10T02:17:56;95140.69;;;10.47;100.00
12775;BME280;6451;42.630;23.382;2022-10-10T02:20:25;95156.03;;;10.52;100.00
12775;BME280;6451;42.630;23.382;2022-10-10T02:22:53;95173.44;;;10.51;100.00
12775;BME280;6451;42.630;23.382;2022-10-10T02:25:25;95183.25;;;10.64;100.00
12775;BME280;6451;42.630;23.382;2022-10-10T02:28:04;95200.47;;;10.77;100.00
12775;BME280;6451;42.630;23.382;2022-10-10T02:30:37;95191.88;;;10.96;100.00
12775;BME280;6451;42.630;23.382;2022-10-10T02:33:05;95191.09;;;10.95;100.00
12775;BME280;6451;42.630;23.382;2022-10-10T02:35:36;95185.50;;;11.00;100.00
12775;BME280;6451;42.630;23.382;2022-10-10T02:38:07;95190.59;;;11.02;100.00
12775;BME280;6451;42.630;23.382;2022-10-10T02:40:36;95169.47;;;10.78;100.00
12775;BME280;6451;42.630;23.382;2022-10-10T02:43:06;95193.81;;;10.95;100.00
12775;BME280;6451;42.630;23.382;2022-10-10T02:45:34;95191.94;;;10.87;100.00
12775;BME280;6451;42.630;23.382;2022-10-10T02:48:03;95196.78;;;10.81;100.00
12775;BME280;6451;42.630;23.382;2022-10-10T02:50:31;95139.44;;;10.45;100.00
12775;BME280;6451;42.630;23.382;2022-10-10T02:52:58;95178.28;;;10.75;100.00
12775;BME280;6451;42.630;23.382;2022-10-10T02:55:25;95189.88;;;10.84;100.00
12775;BME280;6451;42.630;23.382;2022-10-10T02:57:52;95170.09;;;10.83;100.00
12775;BME280;6451;42.630;23.382;2022-10-10T03:00:19;95188.03;;;11.05;100.00
12775;BME280;6451;42.630;23.382;2022-10-10T03:02:48;95035.25;;;9.99;100.00
12775;BME280;6451;42.630;23.382;2022-10-10T03:05:14;95173.38;;;10.98;100.00
12775;BME280;6451;42.630;23.382;2022-10-10T03:07:41;95193.97;;;10.99;100.00
12775;BME280;6451;42.630;23.382;2022-10-10T03:10:09;95127.72;;;10.62;100.00
12775;BME280;6451;42.630;23.382;2022-10-10T03:12:36;95189.97;;;10.96;100.00
12775;BME280;6451;42.630;23.382;2022-10-10T03:15:04;95187.25;;;10.96;100.00
12775;BME280;6451;42.630;23.382;2022-10-10T03:17:32;95190.31;;;10.95;100.00
12775;BME280;6451;42.630;23.382;2022-10-10T03:20:01;95194.47;;;10.92;100.00
12775;BME280;6451;42.630;23.382;2022-10-10T03:22:28;95191.94;;;10.87;100.00
12775;BME280;6451;42.630;23.382;2022-10-10T03:24:55;95196.25;;;10.88;100.00
12775;BME280;6451;42.630;23.382;2022-10-10T03:27:21;95200.56;;;10.89;100.00
12775;BME280;6451;42.630;23.382;2022-10-10T03:29:49;95185.75;;;10.78;100.00
12775;BME280;6451;42.630;23.382;2022-10-10T03:32:16;95174.78;;;10.66;100.00
12775;BME280;6451;42.630;23.382;2022-10-10T03:34:43;95155.97;;;10.61;100.00
12775;BME280;6451;42.630;23.382;2022-10-10T03:37:11;95189.44;;;10.82;100.00
12775;BME280;6451;42.630;23.382;2022-10-10T03:39:38;95197.25;;;10.83;100.00
12775;BME280;6451;42.630;23.382;2022-10-10T03:42:05;95170.81;;;10.63;100.00
12775;BME280;6451;42.630;23.382;2022-10-10T03:44:32;95198.88;;;10.76;100.00
12775;BME280;6451;42.630;23.382;2022-10-10T03:46:59;95193.91;;;10.78;100.00
12775;BME280;6451;42.630;23.382;2022-10-10T03:49:26;95154.44;;;10.51;100.00
12775;BME280;6451;42.630;23.382;2022-10-10T03:51:53;95142.38;;;10.31;100.00
12775;BME280;6451;42.630;23.382;2022-10-10T03:54:21;95188.88;;;10.59;100.00
12775;BME280;6451;42.630;23.382;2022-10-10T03:56:48;95170.22;;;10.49;100.00
12775;BME280;6451;42.630;23.382;2022-10-10T03:59:15;95197.16;;;10.63;100.00
12775;BME280;6451;42.630;23.382;2022-10-10T04:01:42;95195.69;;;10.65;100.00
12775;BME280;6451;42.630;23.382;2022-10-10T04:04:09;95190.81;;;10.50;100.00
12775;BME280;6451;42.630;23.382;2022-10-10T04:06:36;95196.88;;;10.47;100.00
12775;BME280;6451;42.630;23.382;2022-10-10T04:09:03;95206.47;;;10.44;100.00
12775;BME280;6451;42.630;23.382;2022-10-10T04:11:31;95205.50;;;10.49;100.00
12775;BME280;6451;42.630;23.382;2022-10-10T04:13:59;95198.50;;;10.39;100.00
12775;BME280;6451;42.630;23.382;2022-10-10T04:16:26;95196.25;;;10.41;100.00
12775;BME280;6451;42.630;23.382;2022-10-10T04:18:53;95201.88;;;10.36;100.00
12775;BME280;6451;42.630;23.382;2022-10-10T04:21:20;95204.25;;;10.38;100.00
12775;BME280;6451;42.630;23.382;2022-10-10T04:23:47;95201.88;;;10.36;100.00
12775;BME280;6451;42.630;23.382;2022-10-10T04:26:14;95153.56;;;10.03;100.00
12775;BME280;6451;42.630;23.382;2022-10-10T04:28:42;95212.06;;;10.39;100.00
12775;BME280;6451;42.630;23.382;2022-10-10T04:31:09;95212.72;;;10.36;100.00
12775;BME280;6451;42.630;23.382;2022-10-10T04:33:36;95206.81;;;10.34;100.00
12775;BME280;6451;42.630;23.382;2022-10-10T04:36:03;95203.13;;;10.47;100.00
12775;BME280;6451;42.630;23.382;2022-10-10T04:38:30;95199.47;;;10.43;100.00
12775;BME280;6451;42.630;23.382;2022-10-10T04:40:57;95172.50;;;10.38;100.00
12775;BME280;6451;42.630;23.382;2022-10-10T04:43:24;95181.56;;;10.42;100.00
12775;BME280;6451;42.630;23.382;2022-10-10T04:45:54;95198.50;;;10.39;100.00
12775;BME280;6451;42.630;23.382;2022-10-10T04:48:21;95209.38;;;10.39;100.00
12775;BME280;6451;42.630;23.382;2022-10-10T04:50:50;95199.59;;;10.47;100.00
12775;BME280;6451;42.630;23.382;2022-10-10T04:53:18;95220.16;;;10.56;100.00
12775;BME280;6451;42.630;23.382;2022-10-10T04:55:44;95209.75;;;10.67;100.00
12775;BME280;6451;42.630;23.382;2022-10-10T04:58:11;95217.09;;;10.67;100.00
12775;BME280;6451;42.630;23.382;2022-10-10T05:00:39;95195.69;;;10.74;100.00
12775;BME280;6451;42.630;23.382;2022-10-10T05:03:08;95196.72;;;10.90;100.00
12775;BME280;6451;42.630;23.382;2022-10-10T05:05:37;95217.06;;;11.13;100.00
12775;BME280;6451;42.630;23.382;2022-10-10T05:08:04;95206.75;;;10.98;100.00
12775;BME280;6451;42.630;23.382;2022-10-10T05:10:34;95209.72;;;11.14;100.00
12775;BME280;6451;42.630;23.382;2022-10-10T05:13:03;95218.78;;;11.18;100.00
12775;BME280;6451;42.630;23.382;2022-10-10T05:15:33;95211.97;;;11.12;100.00
12775;BME280;6451;42.630;23.382;2022-10-10T05:18:03;95200.53;;;10.98;100.00
12775;BME280;6451;42.630;23.382;2022-10-10T05:20:32;95201.78;;;11.00;100.00
12775;BME280;6451;42.630;23.382;2022-10-10T05:22:59;95217.91;;;11.05;100.00
12775;BME280;6451;42.630;23.382;2022-10-10T05:25:26;95224.88;;;11.15;100.00
12775;BME280;6451;42.630;23.382;2022-10-10T05:27:53;95226.41;;;11.25;100.00
12775;BME280;6451;42.630;23.382;2022-10-10T05:30:20;95221.44;;;11.27;100.00
12775;BME280;6451;42.630;23.382;2022-10-10T05:32:47;95232.97;;;11.24;100.00
12775;BME280;6451;42.630;23.382;2022-10-10T05:35:14;95229.97;;;11.17;100.00
12775;BME280;6451;42.630;23.382;2022-10-10T05:37:43;95228.50;;;11.19;100.00
12775;BME280;6451;42.630;23.382;2022-10-10T05:40:10;95233.16;;;11.19;100.00
12775;BME280;6451;42.630;23.382;2022-10-10T05:42:37;95245.88;;;11.35;100.00
12775;BME280;6451;42.630;23.382;2022-10-10T05:45:04;95250.50;;;11.35;100.00
12775;BME280;6451;42.630;23.382;2022-10-10T05:47:32;95228.28;;;11.33;100.00
12775;BME280;6451;42.630;23.382;2022-10-10T05:50:00;95216.28;;;11.34;100.00
12775;BME280;6451;42.630;23.382;2022-10-10T05:52:27;95245.38;;;11.63;100.00
12775;BME280;6451;42.630;23.382;2022-10-10T05:54:55;95244.84;;;11.69;100.00
12775;BME280;6451;42.630;23.382;2022-10-10T05:57:22;95170.50;;;11.45;100.00
12775;BME280;6451;42.630;23.382;2022-10-10T05:59:49;95253.56;;;12.05;100.00
12775;BME280;6451;42.630;23.382;2022-10-10T06:02:16;95249.31;;;12.16;100.00
12775;BME280;6451;42.630;23.382;2022-10-10T06:04:43;95249.50;;;12.11;100.00
12775;BME280;6451;42.630;23.382;2022-10-10T06:07:10;95247.38;;;12.16;100.00
12775;BME280;6451;42.630;23.382;2022-10-10T06:09:36;95242.88;;;12.20;100.00
12775;BME280;6451;42.630;23.382;2022-10-10T06:12:08;95248.59;;;12.40;100.00
12775;BME280;6451;42.630;23.382;2022-10-10T06:14:35;95256.88;;;12.76;100.00
12775;BME280;6451;42.630;23.382;2022-10-10T06:17:02;95252.19;;;12.65;100.00
12775;BME280;6451;42.630;23.382;2022-10-10T06:19:29;95254.38;;;12.71;100.00
12775;BME280;6451;42.630;23.382;2022-10-10T06:21:56;95261.78;;;12.83;100.00
12775;BME280;6451;42.630;23.382;2022-10-10T06:24:23;95242.56;;;12.79;100.00
12775;BME280;6451;42.630;23.382;2022-10-10T06:26:50;95252.38;;;13.05;100.00
12775;BME280;6451;42.630;23.382;2022-10-10T06:29:19;95259.31;;;13.15;100.00
12775;BME280;6451;42.630;23.382;2022-10-10T06:31:46;95259.94;;;13.20;100.00
12775;BME280;6451;42.630;23.382;2022-10-10T06:34:13;95257.66;;;13.22;100.00
12775;BME280;6451;42.630;23.382;2022-10-10T06:36:40;95258.91;;;13.37;100.00
12775;BME280;6451;42.630;23.382;2022-10-10T06:39:07;95250.81;;;13.41;100.00
12775;BME280;6451;42.630;23.382;2022-10-10T06:41:34;95250.91;;;13.69;100.00
12775;BME280;6451;42.630;23.382;2022-10-10T06:44:00;95259.41;;;13.91;100.00
12775;BME280;6451;42.630;23.382;2022-10-10T06:46:31;95241.09;;;13.92;100.00
12775;BME280;6451;42.630;23.382;2022-10-10T06:49:04;95249.84;;;13.98;100.00
12775;BME280;6451;42.630;23.382;2022-10-10T06:51:34;95258.34;;;14.08;100.00
12775;BME280;6451;42.630;23.382;2022-10-10T06:54:01;95266.50;;;14.21;100.00
12775;BME280;6451;42.630;23.382;2022-10-10T06:56:27;95257.56;;;14.36;100.00
12775;BME280;6451;42.630;23.382;2022-10-10T06:58:55;95261.75;;;14.45;100.00
12775;BME280;6451;42.630;23.382;2022-10-10T07:01:23;95263.16;;;14.67;100.00
12775;BME280;6451;42.630;23.382;2022-10-10T07:03:52;95238.41;;;14.48;100.00
12775;BME280;6451;42.630;23.382;2022-10-10T07:06:19;95271.88;;;14.73;100.00
12775;BME280;6451;42.630;23.382;2022-10-10T07:08:46;95271.81;;;14.85;100.00
12775;BME280;6451;42.630;23.382;2022-10-10T07:11:13;95271.56;;;14.90;100.00
12775;BME280;6451;42.630;23.382;2022-10-10T07:13:40;95278.88;;;15.18;100.00
12775;BME280;6451;42.630;23.382;2022-10-10T07:16:08;95260.09;;;15.32;100.00
12775;BME280;6451;42.630;23.382;2022-10-10T07:18:35;95246.69;;;15.43;100.00
12775;BME280;6451;42.630;23.382;2022-10-10T07:21:06;95266.06;;;15.85;100.00
12775;BME280;6451;42.630;23.382;2022-10-10T07:23:33;95254.97;;;15.46;100.00
12775;BME280;6451;42.630;23.382;2022-10-10T07:26:03;95248.97;;;15.56;100.00
12775;BME280;6451;42.630;23.382;2022-10-10T07:28:30;95265.91;;;15.78;100.00
12775;BME280;6451;42.630;23.382;2022-10-10T07:30:59;95264.63;;;15.91;100.00
12775;BME280;6451;42.630;23.382;2022-10-10T07:33:30;95255.06;;;16.01;100.00
12775;BME280;6451;42.630;23.382;2022-10-10T07:35:57;95257.09;;;16.23;100.00
12775;BME280;6451;42.630;23.382;2022-10-10T07:38:26;95262.22;;;16.63;100.00
12775;BME280;6451;42.630;23.382;2022-10-10T07:40:52;95251.94;;;16.57;100.00
12775;BME280;6451;42.630;23.382;2022-10-10T07:43:21;95255.22;;;16.47;100.00
12775;BME280;6451;42.630;23.382;2022-10-10T07:45:48;95249.81;;;16.89;100.00
12775;BME280;6451;42.630;23.382;2022-10-10T07:48:15;95246.56;;;16.83;100.00
12775;BME280;6451;42.630;23.382;2022-10-10T07:50:43;95248.69;;;16.71;100.00
12775;BME280;6451;42.630;23.382;2022-10-10T07:53:10;95237.44;;;16.56;100.00
12775;BME280;6451;42.630;23.382;2022-10-10T07:55:39;95236.34;;;16.61;100.00
12775;BME280;6451;42.630;23.382;2022-10-10T07:58:07;95245.41;;;16.84;100.00
12775;BME280;6451;42.630;23.382;2022-10-10T08:00:35;95220.25;;;16.79;100.00
12775;BME280;6451;42.630;23.382;2022-10-10T08:03:03;95235.56;;;17.03;100.00
12775;BME280;6451;42.630;23.382;2022-10-10T08:05:30;95227.47;;;16.87;100.00
12775;BME280;6451;42.630;23.382;2022-10-10T08:07:56;95231.41;;;16.89;100.00
12775;BME280;6451;42.630;23.382;2022-10-10T08:10:23;95230.00;;;17.22;100.00
12775;BME280;6451;42.630;23.382;2022-10-10T08:12:52;95235.13;;;17.23;100.00
12775;BME280;6451;42.630;23.382;2022-10-10T08:15:19;95227.88;;;17.35;100.00
12775;BME280;6451;42.630;23.382;2022-10-10T08:17:45;95234.31;;;17.46;100.00
12775;BME280;6451;42.630;23.382;2022-10-10T08:20:12;95231.78;;;17.60;100.00
12775;BME280;6451;42.630;23.382;2022-10-10T08:22:39;95230.25;;;17.36;100.00
12775;BME280;6451;42.630;23.382;2022-10-10T08:25:07;95232.47;;;17.27;100.00
12775;BME280;6451;42.630;23.382;2022-10-10T08:27:34;95244.13;;;17.47;100.00
12775;BME280;6451;42.630;23.382;2022-10-10T08:30:03;95240.78;;;17.57;100.00
12775;BME280;6451;42.630;23.382;2022-10-10T08:32:30;95209.34;;;17.55;100.00
12775;BME280;6451;42.630;23.382;2022-10-10T08:34:57;95214.69;;;17.44;100.00
12775;BME280;6451;42.630;23.382;2022-10-10T08:37:24;95217.00;;;17.68;100.00
12775;BME280;6451;42.630;23.382;2022-10-10T08:39:51;95238.13;;;17.87;100.00
12775;BME280;6451;42.630;23.382;2022-10-10T08:42:27;95236.38;;;18.02;100.00
12775;BME280;6451;42.630;23.382;2022-10-10T08:44:59;95239.00;;;17.95;100.00
12775;BME280;6451;42.630;23.382;2022-10-10T08:47:36;95248.38;;;18.20;100.00
12775;BME280;6451;42.630;23.382;2022-10-10T08:50:05;95246.44;;;18.54;100.00
12775;BME280;6451;42.630;23.382;2022-10-10T08:52:40;95238.44;;;18.42;100.00
12775;BME280;6451;42.630;23.382;2022-10-10T08:55:15;95244.47;;;18.55;100.00
12775;BME280;6451;42.630;23.382;2022-10-10T08:57:47;95224.25;;;18.40;100.00
12775;BME280;6451;42.630;23.382;2022-10-10T09:00:17;95250.91;;;18.66;100.00
12775;BME280;6451;42.630;23.382;2022-10-10T09:02:50;95243.31;;;18.56;100.00
12775;BME280;6451;42.630;23.382;2022-10-10T09:05:19;95247.28;;;18.58;100.00
12775;BME280;6451;42.630;23.382;2022-10-10T09:08:20;95248.53;;;18.65;100.00
12775;BME280;6451;42.630;23.382;2022-10-10T09:10:54;95237.34;;;18.80;100.00
12775;BME280;6451;42.630;23.382;2022-10-10T09:13:30;95244.34;;;18.78;100.00
12775;BME280;6451;42.630;23.382;2022-10-10T09:16:00;95247.69;;;18.94;100.00
12775;BME280;6451;42.630;23.382;2022-10-10T09:18:41;95250.44;;;18.60;100.00
12775;BME280;6451;42.630;23.382;2022-10-10T09:21:14;95253.59;;;18.96;100.00
12775;BME280;6451;42.630;23.382;2022-10-10T09:23:47;95248.59;;;19.09;100.00
12775;BME280;6451;42.630;23.382;2022-10-10T09:26:19;95258.81;;;19.08;100.00
12775;BME280;6451;42.630;23.382;2022-10-10T09:28:52;95262.63;;;19.34;100.00
12775;BME280;6451;42.630;23.382;2022-10-10T09:31:25;95246.44;;;19.25;100.00
12775;BME280;6451;42.630;23.382;2022-10-10T09:33:59;95233.00;;;19.20;100.00
12775;BME280;6451;42.630;23.382;2022-10-10T09:36:35;95237.66;;;19.12;100.00
12775;BME280;6451;42.630;23.382;2022-10-10T09:39:05;95259.03;;;19.30;100.00
12775;BME280;6451;42.630;23.382;2022-10-10T09:41:43;95246.00;;;19.23;100.00
12775;BME280;6451;42.630;23.382;2022-10-10T09:44:13;95265.00;;;19.39;100.00
12775;BME280;6451;42.630;23.382;2022-10-10T09:46:40;95256.72;;;19.35;100.00
12775;BME280;6451;42.630;23.382;2022-10-10T09:49:13;95253.66;;;19.44;100.00
12775;BME280;6451;42.630;23.382;2022-10-10T09:51:40;95266.47;;;19.70;100.00
12775;BME280;6451;42.630;23.382;2022-10-10T09:54:08;95253.72;;;19.55;100.00
12775;BME280;6451;42.630;23.382;2022-10-10T09:56:41;95242.25;;;19.42;100.00
12775;BME280;6451;42.630;23.382;2022-10-10T09:59:37;95252.69;;;19.66;100.00
12775;BME280;6451;42.630;23.382;2022-10-10T10:02:12;95254.59;;;19.59;100.00
12775;BME280;6451;42.630;23.382;2022-10-10T10:04:41;95245.22;;;19.67;100.00
12775;BME280;6451;42.630;23.382;2022-10-10T10:07:18;95252.78;;;19.81;100.00
12775;BME280;6451;42.630;23.382;2022-10-10T10:09:53;95258.69;;;19.79;100.00
12775;BME280;6451;42.630;23.382;2022-10-10T10:12:23;95250.94;;;19.99;100.00
12775;BME280;6451;42.630;23.382;2022-10-10T10:14:52;95228.09;;;19.98;100.00
12775;BME280;6451;42.630;23.382;2022-10-10T10:17:24;95217.94;;;20.10;98.77
12775;BME280;6451;42.630;23.382;2022-10-10T10:19:52;95241.97;;;20.13;99.06
12775;BME280;6451;42.630;23.382;2022-10-10T10:22:24;95234.56;;;20.27;97.96
12775;BME280;6451;42.630;23.382;2022-10-10T10:24:51;95238.44;;;20.16;98.07
12775;BME280;6451;42.630;23.382;2022-10-10T10:27:20;95238.53;;;20.34;97.16
12775;BME280;6451;42.630;23.382;2022-10-10T10:29:50;95244.94;;;20.48;96.29
12775;BME280;6451;42.630;23.382;2022-10-10T10:32:30;95236.25;;;20.46;94.25
12775;BME280;6451;42.630;23.382;2022-10-10T10:35:15;95240.84;;;20.24;95.97
12775;BME280;6451;42.630;23.382;2022-10-10T10:38:00;95236.25;;;20.46;94.87
12775;BME280;6451;42.630;23.382;2022-10-10T10:40:37;95239.28;;;20.31;96.44
12775;BME280;6451;42.630;23.382;2022-10-10T10:46:18;95238.00;;;20.07;96.61
12775;BME280;6451;42.630;23.382;2022-10-10T10:48:57;95236.72;;;19.90;98.09
12775;BME280;6451;42.630;23.382;2022-10-10T10:51:50;95230.47;;;19.96;97.87
12775;BME280;6451;42.630;23.382;2022-10-10T10:54:29;95238.44;;;20.16;97.50
12775;BME280;6451;42.630;23.382;2022-10-10T10:57:02;95238.28;;;19.91;99.10
12775;BME280;6451;42.630;23.382;2022-10-10T10:59:42;95236.28;;;19.84;99.62
12775;BME280;6451;42.630;23.382;2022-10-10T11:02:26;95232.28;;;19.78;99.02
12775;BME280;6451;42.630;23.382;2022-10-10T11:05:06;95231.09;;;19.72;100.00
12775;BME280;6451;42.630;23.382;2022-10-10T11:07:49;95052.81;;;18.52;100.00
12775;BME280;6451;42.630;23.382;2022-10-10T11:10:25;95195.47;;;19.45;100.00
12775;BME280;6451;42.630;23.382;2022-10-10T11:13:00;95213.50;;;19.39;100.00
12775;BME280;6451;42.630;23.382;2022-10-10T11:15:31;95205.28;;;19.47;100.00
12775;BME280;6451;42.630;23.382;2022-10-10T11:18:04;95192.09;;;19.66;100.00
12775;BME280;6451;42.630;23.382;2022-10-10T11:20:39;95160.63;;;19.67;100.00
12775;BME280;6451;42.630;23.382;2022-10-10T11:23:12;95205.88;;;19.70;100.00
12775;BME280;6451;42.630;23.382;2022-10-10T11:25:44;95204.25;;;19.62;100.00
12775;BME280;6451;42.630;23.382;2022-10-10T11:28:15;95184.50;;;19.53;100.00
12775;BME280;6451;42.630;23.382;2022-10-10T11:30:48;95177.50;;;19.59;100.00
12775;BME280;6451;42.630;23.382;2022-10-10T11:33:19;95201.66;;;19.83;100.00
12775;BME280;6451;42.630;23.382;2022-10-10T11:35:52;95197.97;;;19.61;100.00
12775;BME280;6451;42.630;23.382;2022-10-10T11:38:27;95191.84;;;19.38;100.00
12775;BME280;6451;42.630;23.382;2022-10-10T11:40:57;95192.66;;;19.38;100.00
12775;BME280;6451;42.630;23.382;2022-10-10T11:43:32;95188.31;;;19.37;100.00
12775;BME280;6451;42.630;23.382;2022-10-10T11:46:04;95187.78;;;19.69;100.00
12775;BME280;6451;42.630;23.382;2022-10-10T11:48:40;95179.00;;;19.53;100.00
12775;BME280;6451;42.630;23.382;2022-10-10T11:51:20;95168.59;;;19.32;100.00
12775;BME280;6451;42.630;23.382;2022-10-10T11:53:52;95172.59;;;19.38;100.00
12775;BME280;6451;42.630;23.382;2022-10-10T11:56:26;95129.47;;;19.01;100.00
12775;BME280;6451;42.630;23.382;2022-10-10T11:59:01;95162.81;;;19.40;100.00
12775;BME280;6451;42.630;23.382;2022-10-10T12:01:34;95144.72;;;19.47;100.00
12775;BME280;6451;42.630;23.382;2022-10-10T12:04:03;95152.25;;;19.53;100.00
12775;BME280;6451;42.630;23.382;2022-10-10T12:06:34;95158.97;;;19.56;100.00
12775;BME280;6451;42.630;23.382;2022-10-10T12:09:07;95153.91;;;19.61;99.20
12775;BME280;6451;42.630;23.382;2022-10-10T12:11:42;95158.63;;;19.61;98.88
12775;BME280;6451;42.630;23.382;2022-10-10T12:14:14;95145.09;;;19.41;100.00
12775;BME280;6451;42.630;23.382;2022-10-10T12:16:42;95150.19;;;19.39;98.97
12775;BME280;6451;42.630;23.382;2022-10-10T12:19:18;95156.66;;;19.61;98.01
12775;BME280;6451;42.630;23.382;2022-10-10T12:22:19;95149.66;;;19.78;96.48
12775;BME280;6451;42.630;23.382;2022-10-10T12:25:22;95132.97;;;20.30;94.66
12775;BME280;6451;42.630;23.382;2022-10-10T12:28:04;95132.88;;;20.08;95.15
12775;BME280;6451;42.630;23.382;2022-10-10T12:30:32;95126.88;;;19.85;95.84
12775;BME280;6451;42.630;23.382;2022-10-10T12:32:59;95129.66;;;19.92;94.87
12775;BME280;6451;42.630;23.382;2022-10-10T12:35:34;95138.31;;;19.90;94.71
12775;BME280;6451;42.630;23.382;2022-10-10T12:38:16;95117.88;;;19.91;93.52
12775;BME280;6451;42.630;23.382;2022-10-10T12:41:07;95134.88;;;20.11;91.26
12775;BME280;6451;42.630;23.382;2022-10-10T12:43:43;95127.84;;;20.24;90.27
12775;BME280;6451;42.630;23.382;2022-10-10T12:46:23;95112.72;;;19.83;90.45
12775;BME280;6451;42.630;23.382;2022-10-10T12:51:41;95108.09;;;20.05;90.74
12775;BME280;6451;42.630;23.382;2022-10-10T12:54:21;95121.50;;;20.13;90.89
12775;BME280;6451;42.630;23.382;2022-10-10T12:57:02;95107.59;;;19.85;92.32
12775;BME280;6451;42.630;23.382;2022-10-10T12:59:29;95119.59;;;20.24;90.93
12775;BME280;6451;42.630;23.382;2022-10-10T13:02:03;95123.47;;;20.13;90.42
12775;BME280;6451;42.630;23.382;2022-10-10T13:04:31;95124.28;;;20.20;90.93
12775;BME280;6451;42.630;23.382;2022-10-10T13:07:00;95114.03;;;20.14;91.84
12775;BME280;6451;42.630;23.382;2022-10-10T13:09:31;95122.72;;;20.26;91.81
12775;BME280;6451;42.630;23.382;2022-10-10T13:12:01;95106.19;;;20.30;91.16
12775;BME280;6451;42.630;23.382;2022-10-10T13:14:38;95114.38;;;20.02;93.75
12775;BME280;6451;42.630;23.382;2022-10-10T13:17:19;95115.19;;;20.13;92.62
12775;BME280;6451;42.630;23.382;2022-10-10T13:19:48;95117.59;;;20.21;91.46